sensor_id;sensor_type;location;lat;lon;timestamp;P1;durP1;ratioP1;P2;durP2;ratioP2
81725;SDS011;71135;16.738;-14.648;2024-01-25T00:02:35;20.23;;;3.15;;
81725;SDS011;71135;16.738;-14.648;2024-01-25T00:05:08;22.83;;;2.70;;
81725;SDS011;71135;16.738;-14.648;2024-01-25T00:07:44;23.17;;;3.03;;
81725;SDS011;71135;16.738;-14.648;2024-01-25T00:10:16;18.08;;;3.58;;
81725;SDS011;71135;16.738;-14.648;2024-01-25T00:12:47;21.98;;;3.70;;
81725;SDS011;71135;16.738;-14.648;2024-01-25T00:15:16;21.73;;;2.92;;
81725;SDS011;71135;16.738;-14.648;2024-01-25T00:17:48;21.55;;;3.05;;
81725;SDS011;71135;16.738;-14.648;2024-01-25T00:20:17;24.63;;;3.85;;
81725;SDS011;71135;16.738;-14.648;2024-01-25T00:22:47;22.63;;;3.92;;
81725;SDS011;71135;16.738;-14.648;2024-01-25T00:25:16;21.10;;;2.83;;
81725;SDS011;71135;16.738;-14.648;2024-01-25T00:27:46;15.10;;;3.25;;
81725;SDS011;71135;16.738;-14.648;2024-01-25T00:30:15;18.77;;;2.47;;
81725;SDS011;71135;16.738;-14.648;2024-01-25T00:32:44;20.90;;;2.90;;
81725;SDS011;71135;16.738;-14.648;2024-01-25T00:35:20;19.85;;;3.50;;
81725;SDS011;71135;16.738;-14.648;2024-01-25T00:37:50;17.40;;;2.35;;
81725;SDS011;71135;16.738;-14.648;2024-01-25T00:40:28;22.27;;;2.60;;
81725;SDS011;71135;16.738;-14.648;2024-01-25T00:42:58;26.05;;;4.38;;
81725;SDS011;71135;16.738;-14.648;2024-01-25T00:45:30;18.35;;;3.33;;
81725;SDS011;71135;16.738;-14.648;2024-01-25T00:48:03;17.70;;;2.33;;
81725;SDS011;71135;16.738;-14.648;2024-01-25T00:50:33;19.77;;;2.88;;
81725;SDS011;71135;16.738;-14.648;2024-01-25T00:53:03;18.60;;;3.00;;
81725;SDS011;71135;16.738;-14.648;2024-01-25T00:55:34;18.75;;;3.10;;
81725;SDS011;71135;16.738;-14.648;2024-01-25T00:58:01;24.77;;;3.10;;
81725;SDS011;71135;16.738;-14.648;2024-01-25T01:00:33;17.63;;;2.75;;
81725;SDS011;71135;16.738;-14.648;2024-01-25T01:03:06;19.58;;;3.03;;
81725;SDS011;71135;16.738;-14.648;2024-01-25T01:05:37;24.35;;;3.47;;
81725;SDS011;71135;16.738;-14.648;2024-01-25T01:08:07;15.80;;;2.72;;
81725;SDS011;71135;16.738;-14.648;2024-01-25T01:10:38;15.88;;;2.03;;
81725;SDS011;71135;16.738;-14.648;2024-01-25T01:15:56;19.80;;;3.15;;
81725;SDS011;71135;16.738;-14.648;2024-01-25T01:18:28;19.17;;;2.97;;
81725;SDS011;71135;16.738;-14.648;2024-01-25T01:20:58;20.23;;;2.60;;
81725;SDS011;71135;16.738;-14.648;2024-01-25T01:23:27;17.00;;;2.85;;
81725;SDS011;71135;16.738;-14.648;2024-01-25T01:25:57;23.58;;;3.47;;
81725;SDS011;71135;16.738;-14.648;2024-01-25T01:28:26;21.33;;;2.95;;
81725;SDS011;71135;16.738;-14.648;2024-01-25T01:30:55;24.92;;;3.33;;
81725;SDS011;71135;16.738;-14.648;2024-01-25T01:33:25;22.80;;;3.13;;
81725;SDS011;71135;16.738;-14.648;2024-01-25T01:35:57;24.20;;;3.80;;
81725;SDS011;71135;16.738;-14.648;2024-01-25T01:38:26;22.17;;;4.03;;
81725;SDS011;71135;16.738;-14.648;2024-01-25T01:40:55;18.50;;;3.17;;
81725;SDS011;71135;16.738;-14.648;2024-01-25T01:43:24;16.70;;;3.28;;
81725;SDS011;71135;16.738;-14.648;2024-01-25T01:45:55;17.38;;;3.10;;
81725;SDS011;71135;16.738;-14.648;2024-01-25T01:48:34;25.95;;;4.28;;
81725;SDS011;71135;16.738;-14.648;2024-01-25T02:00:03;31.17;;;3.55;;
81725;SDS011;71135;16.738;-14.648;2024-01-25T02:02:37;19.67;;;3.00;;
81725;SDS011;71135;16.738;-14.648;2024-01-25T02:05:09;21.05;;;2.55;;
81725;SDS011;71135;16.738;-14.648;2024-01-25T02:07:39;25.30;;;3.72;;
81725;SDS011;71135;16.738;-14.648;2024-01-25T02:10:09;24.27;;;2.80;;
81725;SDS011;71135;16.738;-14.648;2024-01-25T02:12:38;19.20;;;2.88;;
81725;SDS011;71135;16.738;-14.648;2024-01-25T02:15:08;27.70;;;3.70;;
81725;SDS011;71135;16.738;-14.648;2024-01-25T02:17:37;24.23;;;2.85;;
81725;SDS011;71135;16.738;-14.648;2024-01-25T02:20:10;19.23;;;2.63;;
81725;SDS011;71135;16.738;-14.648;2024-01-25T02:22:42;23.52;;;3.45;;
81725;SDS011;71135;16.738;-14.648;2024-01-25T02:25:11;18.67;;;3.47;;
81725;SDS011;71135;16.738;-14.648;2024-01-25T02:27:41;25.05;;;3.90;;
81725;SDS011;71135;16.738;-14.648;2024-01-25T02:30:10;23.65;;;4.28;;
81725;SDS011;71135;16.738;-14.648;2024-01-25T02:32:40;19.30;;;2.78;;
81725;SDS011;71135;16.738;-14.648;2024-01-25T02:35:11;29.23;;;3.20;;
81725;SDS011;71135;16.738;-14.648;2024-01-25T02:37:43;17.50;;;2.92;;
81725;SDS011;71135;16.738;-14.648;2024-01-25T02:40:13;27.88;;;3.90;;
81725;SDS011;71135;16.738;-14.648;2024-01-25T02:42:42;29.17;;;3.72;;
81725;SDS011;71135;16.738;-14.648;2024-01-25T02:45:11;18.50;;;2.63;;
81725;SDS011;71135;16.738;-14.648;2024-01-25T02:47:43;19.10;;;2.78;;
81725;SDS011;71135;16.738;-14.648;2024-01-25T02:50:13;28.05;;;3.08;;
81725;SDS011;71135;16.738;-14.648;2024-01-25T02:52:45;26.50;;;3.05;;
81725;SDS011;71135;16.738;-14.648;2024-01-25T02:55:14;24.08;;;2.80;;
81725;SDS011;71135;16.738;-14.648;2024-01-25T02:57:47;19.75;;;3.03;;
81725;SDS011;71135;16.738;-14.648;2024-01-25T03:00:16;24.42;;;3.65;;
81725;SDS011;71135;16.738;-14.648;2024-01-25T03:02:45;14.77;;;3.08;;
81725;SDS011;71135;16.738;-14.648;2024-01-25T03:05:14;20.65;;;2.90;;
81725;SDS011;71135;16.738;-14.648;2024-01-25T03:07:46;27.38;;;3.38;;
81725;SDS011;71135;16.738;-14.648;2024-01-25T03:10:16;14.25;;;2.50;;
81725;SDS011;71135;16.738;-14.648;2024-01-25T03:12:45;20.45;;;3.83;;
81725;SDS011;71135;16.738;-14.648;2024-01-25T03:15:15;20.67;;;2.72;;
81725;SDS011;71135;16.738;-14.648;2024-01-25T03:17:44;30.92;;;3.70;;
81725;SDS011;71135;16.738;-14.648;2024-01-25T03:20:13;21.17;;;2.60;;
81725;SDS011;71135;16.738;-14.648;2024-01-25T03:22:46;19.80;;;3.35;;
81725;SDS011;71135;16.738;-14.648;2024-01-25T03:25:15;31.58;;;4.38;;
81725;SDS011;71135;16.738;-14.648;2024-01-25T03:27:44;22.63;;;2.85;;
81725;SDS011;71135;16.738;-14.648;2024-01-25T17:17:57;31.08;;;12.15;;
81725;SDS011;71135;16.738;-14.648;2024-01-25T17:20:26;29.98;;;12.88;;
81725;SDS011;71135;16.738;-14.648;2024-01-25T17:22:56;39.60;;;13.15;;
81725;SDS011;71135;16.738;-14.648;2024-01-25T17:25:29;31.42;;;11.98;;
81725;SDS011;71135;16.738;-14.648;2024-01-25T17:27:58;28.08;;;11.75;;
81725;SDS011;71135;16.738;-14.648;2024-01-25T17:33:48;27.50;;;12.30;;
81725;SDS011;71135;16.738;-14.648;2024-01-25T17:41:37;30.20;;;12.77;;
81725;SDS011;71135;16.738;-14.648;2024-01-25T17:44:06;34.83;;;13.57;;
81725;SDS011;71135;16.738;-14.648;2024-01-25T17:46:37;31.48;;;13.90;;
81725;SDS011;71135;16.738;-14.648;2024-01-25T17:49:15;32.95;;;12.77;;
81725;SDS011;71135;16.738;-14.648;2024-01-25T17:51:44;32.70;;;12.98;;
81725;SDS011;71135;16.738;-14.648;2024-01-25T17:57:32;34.63;;;13.82;;
81725;SDS011;71135;16.738;-14.648;2024-01-25T18:00:02;36.70;;;15.02;;
81725;SDS011;71135;16.738;-14.648;2024-01-25T18:02:31;38.35;;;14.40;;
81725;SDS011;71135;16.738;-14.648;2024-01-25T18:05:03;29.77;;;12.68;;
81725;SDS011;71135;16.738;-14.648;2024-01-25T18:07:33;33.03;;;13.32;;
81725;SDS011;71135;16.738;-14.648;2024-01-25T18:10:02;30.08;;;13.88;;
81725;SDS011;71135;16.738;-14.648;2024-01-25T18:12:34;29.00;;;12.07;;
81725;SDS011;71135;16.738;-14.648;2024-01-25T18:15:04;38.17;;;13.55;;
81725;SDS011;71135;16.738;-14.648;2024-01-25T18:17:34;37.33;;;13.18;;
81725;SDS011;71135;16.738;-14.648;2024-01-25T18:20:06;39.63;;;14.50;;
81725;SDS011;71135;16.738;-14.648;2024-01-25T18:22:36;40.65;;;13.32;;
81725;SDS011;71135;16.738;-14.648;2024-01-25T18:25:06;37.58;;;14.00;;
81725;SDS011;71135;16.738;-14.648;2024-01-25T18:27:36;34.88;;;14.38;;
81725;SDS011;71135;16.738;-14.648;2024-01-25T18:30:06;39.67;;;13.73;;
81725;SDS011;71135;16.738;-14.648;2024-01-25T18:32:36;42.17;;;15.13;;
81725;SDS011;71135;16.738;-14.648;2024-01-25T18:35:08;39.63;;;14.65;;
81725;SDS011;71135;16.738;-14.648;2024-01-25T18:37:37;33.90;;;13.45;;
81725;SDS011;71135;16.738;-14.648;2024-01-25T18:40:08;39.67;;;13.77;;
81725;SDS011;71135;16.738;-14.648;2024-01-25T18:42:38;30.77;;;13.48;;
81725;SDS011;71135;16.738;-14.648;2024-01-25T18:45:07;36.25;;;13.52;;
81725;SDS011;71135;16.738;-14.648;2024-01-25T18:47:37;38.60;;;13.85;;
81725;SDS011;71135;16.738;-14.648;2024-01-25T18:50:09;29.90;;;12.55;;
81725;SDS011;71135;16.738;-14.648;2024-01-25T18:52:38;35.65;;;13.10;;
81725;SDS011;71135;16.738;-14.648;2024-01-25T18:55:08;40.30;;;14.02;;
81725;SDS011;71135;16.738;-14.648;2024-01-25T18:57:38;33.75;;;13.70;;
81725;SDS011;71135;16.738;-14.648;2024-01-25T19:00:08;34.95;;;13.35;;
81725;SDS011;71135;16.738;-14.648;2024-01-25T19:02:39;39.72;;;13.48;;
81725;SDS011;71135;16.738;-14.648;2024-01-25T19:05:14;38.28;;;13.98;;
81725;SDS011;71135;16.738;-14.648;2024-01-25T19:07:44;37.08;;;13.27;;
81725;SDS011;71135;16.738;-14.648;2024-01-25T19:10:16;36.65;;;13.57;;
81725;SDS011;71135;16.738;-14.648;2024-01-25T19:12:45;37.90;;;14.65;;
81725;SDS011;71135;16.738;-14.648;2024-01-25T19:15:14;36.55;;;14.50;;
81725;SDS011;71135;16.738;-14.648;2024-01-25T19:17:43;39.60;;;15.73;;
81725;SDS011;71135;16.738;-14.648;2024-01-25T19:20:15;38.80;;;13.88;;
81725;SDS011;71135;16.738;-14.648;2024-01-25T19:22:44;39.22;;;14.40;;
81725;SDS011;71135;16.738;-14.648;2024-01-25T19:25:14;43.38;;;16.90;;
81725;SDS011;71135;16.738;-14.648;2024-01-25T19:27:43;39.55;;;16.05;;
81725;SDS011;71135;16.738;-14.648;2024-01-25T19:30:12;39.28;;;15.02;;
81725;SDS011;71135;16.738;-14.648;2024-01-25T19:32:42;38.28;;;13.95;;
81725;SDS011;71135;16.738;-14.648;2024-01-25T19:35:14;36.85;;;13.02;;
81725;SDS011;71135;16.738;-14.648;2024-01-25T19:37:44;35.55;;;13.40;;
81725;SDS011;71135;16.738;-14.648;2024-01-25T19:40:14;31.77;;;13.48;;
81725;SDS011;71135;16.738;-14.648;2024-01-25T19:42:43;39.38;;;14.00;;
81725;SDS011;71135;16.738;-14.648;2024-01-25T19:45:14;38.85;;;13.93;;
81725;SDS011;71135;16.738;-14.648;2024-01-25T19:47:43;37.45;;;13.35;;
81725;SDS011;71135;16.738;-14.648;2024-01-25T19:50:15;39.38;;;14.40;;
81725;SDS011;71135;16.738;-14.648;2024-01-25T19:52:44;38.70;;;14.05;;
81725;SDS011;71135;16.738;-14.648;2024-01-25T19:55:13;40.22;;;15.35;;
81725;SDS011;71135;16.738;-14.648;2024-01-25T19:57:43;40.47;;;14.10;;
81725;SDS011;71135;16.738;-14.648;2024-01-25T20:00:13;38.58;;;14.68;;
81725;SDS011;71135;16.738;-14.648;2024-01-25T20:02:43;40.00;;;14.80;;
81725;SDS011;71135;16.738;-14.648;2024-01-25T20:05:16;40.10;;;14.80;;
81725;SDS011;71135;16.738;-14.648;2024-01-25T20:07:46;32.80;;;13.35;;
81725;SDS011;71135;16.738;-14.648;2024-01-25T20:10:16;35.45;;;14.48;;
81725;SDS011;71135;16.738;-14.648;2024-01-25T20:12:45;35.38;;;14.48;;
81725;SDS011;71135;16.738;-14.648;2024-01-25T20:15:14;39.40;;;13.70;;
81725;SDS011;71135;16.738;-14.648;2024-01-25T20:17:43;38.78;;;14.63;;
81725;SDS011;71135;16.738;-14.648;2024-01-25T20:20:15;38.53;;;14.40;;
81725;SDS011;71135;16.738;-14.648;2024-01-25T20:22:45;35.83;;;14.10;;
81725;SDS011;71135;16.738;-14.648;2024-01-25T20:25:14;35.53;;;13.75;;
81725;SDS011;71135;16.738;-14.648;2024-01-25T20:27:46;47.35;;;15.07;;
81725;SDS011;71135;16.738;-14.648;2024-01-25T20:30:15;41.38;;;13.75;;
81725;SDS011;71135;16.738;-14.648;2024-01-25T20:32:45;36.25;;;13.45;;
81725;SDS011;71135;16.738;-14.648;2024-01-25T20:35:17;32.05;;;14.30;;
81725;SDS011;71135;16.738;-14.648;2024-01-25T20:37:47;40.50;;;13.57;;
81725;SDS011;71135;16.738;-14.648;2024-01-25T20:40:16;35.42;;;13.57;;
81725;SDS011;71135;16.738;-14.648;2024-01-25T20:42:45;35.58;;;13.70;;
81725;SDS011;71135;16.738;-14.648;2024-01-25T20:45:14;37.65;;;14.55;;
81725;SDS011;71135;16.738;-14.648;2024-01-25T20:47:47;40.17;;;14.68;;
81725;SDS011;71135;16.738;-14.648;2024-01-25T20:50:19;45.22;;;14.85;;
81725;SDS011;71135;16.738;-14.648;2024-01-25T20:52:48;42.53;;;15.48;;
81725;SDS011;71135;16.738;-14.648;2024-01-25T20:55:17;48.25;;;15.85;;
81725;SDS011;71135;16.738;-14.648;2024-01-25T20:57:46;43.30;;;15.45;;
81725;SDS011;71135;16.738;-14.648;2024-01-25T21:00:17;53.08;;;16.73;;
81725;SDS011;71135;16.738;-14.648;2024-01-25T21:02:47;43.58;;;15.43;;
81725;SDS011;71135;16.738;-14.648;2024-01-25T21:05:21;47.55;;;15.35;;
81725;SDS011;71135;16.738;-14.648;2024-01-25T21:07:51;42.92;;;15.15;;
81725;SDS011;71135;16.738;-14.648;2024-01-25T21:10:21;43.22;;;16.73;;
81725;SDS011;71135;16.738;-14.648;2024-01-25T21:12:50;46.95;;;15.93;;
81725;SDS011;71135;16.738;-14.648;2024-01-25T21:15:20;42.28;;;14.95;;
81725;SDS011;71135;16.738;-14.648;2024-01-25T21:17:50;49.05;;;16.13;;
81725;SDS011;71135;16.738;-14.648;2024-01-25T21:20:22;44.97;;;15.48;;
81725;SDS011;71135;16.738;-14.648;2024-01-25T21:22:51;43.08;;;16.30;;
81725;SDS011;71135;16.738;-14.648;2024-01-25T21:25:20;41.50;;;14.63;;
81725;SDS011;71135;16.738;-14.648;2024-01-25T21:27:49;43.10;;;15.48;;
81725;SDS011;71135;16.738;-14.648;2024-01-25T21:30:18;44.78;;;15.55;;
81725;SDS011;71135;16.738;-14.648;2024-01-25T21:32:48;42.97;;;15.85;;
81725;SDS011;71135;16.738;-14.648;2024-01-25T21:35:18;45.75;;;16.17;;
81725;SDS011;71135;16.738;-14.648;2024-01-25T21:37:49;48.08;;;16.38;;
81725;SDS011;71135;16.738;-14.648;2024-01-25T21:40:18;46.53;;;16.63;;
81725;SDS011;71135;16.738;-14.648;2024-01-25T21:42:47;47.40;;;16.67;;
81725;SDS011;71135;16.738;-14.648;2024-01-25T21:45:17;46.67;;;17.58;;
81725;SDS011;71135;16.738;-14.648;2024-01-25T21:47:46;49.25;;;16.88;;
81725;SDS011;71135;16.738;-14.648;2024-01-25T21:50:16;43.65;;;16.15;;
81725;SDS011;71135;16.738;-14.648;2024-01-25T21:52:45;49.80;;;16.27;;
81725;SDS011;71135;16.738;-14.648;2024-01-25T21:55:17;42.80;;;16.27;;
81725;SDS011;71135;16.738;-14.648;2024-01-25T21:57:46;42.22;;;16.35;;
81725;SDS011;71135;16.738;-14.648;2024-01-25T22:00:16;44.65;;;16.50;;
81725;SDS011;71135;16.738;-14.648;2024-01-25T22:02:45;37.53;;;15.68;;
81725;SDS011;71135;16.738;-14.648;2024-01-25T22:05:14;44.83;;;17.20;;
81725;SDS011;71135;16.738;-14.648;2024-01-25T22:07:44;40.92;;;15.77;;
81725;SDS011;71135;16.738;-14.648;2024-01-25T22:10:14;47.13;;;17.95;;
81725;SDS011;71135;16.738;-14.648;2024-01-25T22:12:47;39.10;;;15.77;;
81725;SDS011;71135;16.738;-14.648;2024-01-25T22:15:16;43.90;;;16.25;;
81725;SDS011;71135;16.738;-14.648;2024-01-25T22:17:45;43.13;;;17.23;;
81725;SDS011;71135;16.738;-14.648;2024-01-25T22:20:14;37.42;;;15.88;;
81725;SDS011;71135;16.738;-14.648;2024-01-25T22:22:43;43.55;;;17.23;;
81725;SDS011;71135;16.738;-14.648;2024-01-25T22:25:12;38.20;;;15.88;;
81725;SDS011;71135;16.738;-14.648;2024-01-25T22:27:44;37.38;;;15.63;;
81725;SDS011;71135;16.738;-14.648;2024-01-25T22:30:13;35.75;;;15.88;;
81725;SDS011;71135;16.738;-14.648;2024-01-25T22:32:43;40.08;;;16.23;;
81725;SDS011;71135;16.738;-14.648;2024-01-25T22:35:12;44.08;;;17.55;;
81725;SDS011;71135;16.738;-14.648;2024-01-25T22:37:41;38.45;;;17.73;;
81725;SDS011;71135;16.738;-14.648;2024-01-25T22:40:11;36.95;;;15.15;;
81725;SDS011;71135;16.738;-14.648;2024-01-25T22:42:41;37.42;;;16.30;;
81725;SDS011;71135;16.738;-14.648;2024-01-25T22:45:12;31.52;;;14.75;;
81725;SDS011;71135;16.738;-14.648;2024-01-25T22:47:42;35.60;;;15.20;;
81725;SDS011;71135;16.738;-14.648;2024-01-25T22:50:11;33.42;;;15.18;;
81725;SDS011;71135;16.738;-14.648;2024-01-25T22:52:42;30.65;;;14.45;;
81725;SDS011;71135;16.738;-14.648;2024-01-25T22:55:11;33.17;;;15.00;;
81725;SDS011;71135;16.738;-14.648;2024-01-25T22:57:40;28.95;;;13.95;;
81725;SDS011;71135;16.738;-14.648;2024-01-25T23:00:13;27.42;;;13.63;;
81725;SDS011;71135;16.738;-14.648;2024-01-25T23:02:46;25.40;;;12.63;;
81725;SDS011;71135;16.738;-14.648;2024-01-25T23:05:15;27.60;;;12.90;;
81725;SDS011;71135;16.738;-14.648;2024-01-25T23:07:48;27.23;;;13.90;;
81725;SDS011;71135;16.738;-14.648;2024-01-25T23:10:17;32.88;;;14.95;;
81725;SDS011;71135;16.738;-14.648;2024-01-25T23:12:50;29.00;;;13.57;;
81725;SDS011;71135;16.738;-14.648;2024-01-25T23:15:22;29.75;;;14.57;;
81725;SDS011;71135;16.738;-14.648;2024-01-25T23:17:51;27.63;;;13.32;;
81725;SDS011;71135;16.738;-14.648;2024-01-25T23:20:20;30.20;;;14.50;;
81725;SDS011;71135;16.738;-14.648;2024-01-25T23:22:50;28.77;;;13.77;;
81725;SDS011;71135;16.738;-14.648;2024-01-25T23:25:20;33.40;;;13.75;;
81725;SDS011;71135;16.738;-14.648;2024-01-25T23:27:51;24.77;;;13.02;;
81725;SDS011;71135;16.738;-14.648;2024-01-25T23:30:21;25.60;;;12.75;;
81725;SDS011;71135;16.738;-14.648;2024-01-25T23:32:50;26.38;;;12.60;;
81725;SDS011;71135;16.738;-14.648;2024-01-25T23:35:19;22.48;;;11.50;;
81725;SDS011;71135;16.738;-14.648;2024-01-25T23:37:48;20.17;;;10.95;;
81725;SDS011;71135;16.738;-14.648;2024-01-25T23:40:17;26.77;;;11.18;;
81725;SDS011;71135;16.738;-14.648;2024-01-25T23:42:47;21.58;;;10.73;;
81725;SDS011;71135;16.738;-14.648;2024-01-25T23:45:21;23.77;;;10.88;;
81725;SDS011;71135;16.738;-14.648;2024-01-25T23:47:51;20.02;;;10.77;;
81725;SDS011;71135;16.738;-14.648;2024-01-25T23:50:20;22.85;;;11.38;;
81725;SDS011;71135;16.738;-14.648;2024-01-25T23:52:49;22.55;;;11.50;;
81725;SDS011;71135;16.738;-14.648;2024-01-25T23:55:18;21.88;;;11.43;;
81725;SDS011;71135;16.738;-14.648;2024-01-25T23:57:47;20.90;;;12.07;;
